sensor_id;sensor_type;location;lat;lon;timestamp;temperature;humidity
14031;DHT22;7090;49.436;8.490;2023-03-31T00:00:31;11.50;99.90
14031;DHT22;7090;49.436;8.490;2023-03-31T00:02:57;11.50;99.90
14031;DHT22;7090;49.436;8.490;2023-03-31T00:05:24;11.50;99.90
14031;DHT22;7090;49.436;8.490;2023-03-31T00:07:54;11.50;99.90
14031;DHT22;7090;49.436;8.490;2023-03-31T00:10:33;11.40;99.90
14031;DHT22;7090;49.436;8.490;2023-03-31T00:13:00;11.40;99.90
14031;DHT22;7090;49.436;8.490;2023-03-31T00:15:26;11.40;99.90
14031;DHT22;7090;49.436;8.490;2023-03-31T00:17:52;11.50;99.90
14031;DHT22;7090;49.436;8.490;2023-03-31T00:20:18;11.50;99.90
14031;DHT22;7090;49.436;8.490;2023-03-31T00:22:44;11.50;99.90
14031;DHT22;7090;49.436;8.490;2023-03-31T00:25:11;11.50;99.90
14031;DHT22;7090;49.436;8.490;2023-03-31T00:27:37;11.60;99.90
14031;DHT22;7090;49.436;8.490;2023-03-31T00:30:03;11.60;99.90
14031;DHT22;7090;49.436;8.490;2023-03-31T00:32:29;11.60;99.90
14031;DHT22;7090;49.436;8.490;2023-03-31T00:34:54;11.60;99.90
14031;DHT22;7090;49.436;8.490;2023-03-31T00:37:20;11.70;99.90
14031;DHT22;7090;49.436;8.490;2023-03-31T00:39:46;11.70;99.90
14031;DHT22;7090;49.436;8.490;2023-03-31T00:42:12;11.70;99.90
14031;DHT22;7090;49.436;8.490;2023-03-31T00:47:32;11.70;99.90
14031;DHT22;7090;49.436;8.490;2023-03-31T00:49:58;11.70;99.90
14031;DHT22;7090;49.436;8.490;2023-03-31T00:52:33;11.80;99.90
14031;DHT22;7090;49.436;8.490;2023-03-31T00:55:08;11.80;99.90
14031;DHT22;7090;49.436;8.490;2023-03-31T00:57:37;11.90;99.90
14031;DHT22;7090;49.436;8.490;2023-03-31T01:00:09;12.00;99.90
14031;DHT22;7090;49.436;8.490;2023-03-31T01:02:50;12.10;99.90
14031;DHT22;7090;49.436;8.490;2023-03-31T01:05:24;12.10;99.90
14031;DHT22;7090;49.436;8.490;2023-03-31T01:07:51;12.00;99.90
14031;DHT22;7090;49.436;8.490;2023-03-31T01:10:18;12.00;99.90
14031;DHT22;7090;49.436;8.490;2023-03-31T01:12:47;12.00;99.90
14031;DHT22;7090;49.436;8.490;2023-03-31T01:15:14;11.90;99.90
14031;DHT22;7090;49.436;8.490;2023-03-31T01:17:40;12.00;99.90
14031;DHT22;7090;49.436;8.490;2023-03-31T01:20:34;12.00;99.90
14031;DHT22;7090;49.436;8.490;2023-03-31T01:44:44;12.20;99.90
14031;DHT22;7090;49.436;8.490;2023-03-31T01:47:18;12.30;57.70
14031;DHT22;7090;49.436;8.490;2023-03-31T01:50:07;12.30;15.00
14031;DHT22;7090;49.436;8.490;2023-03-31T01:53:04;12.30;1.00
14031;DHT22;7090;49.436;8.490;2023-03-31T01:56:01;12.30;1.00
14031;DHT22;7090;49.436;8.490;2023-03-31T01:58:43;12.40;1.00
14031;DHT22;7090;49.436;8.490;2023-03-31T02:01:32;12.40;1.00
14031;DHT22;7090;49.436;8.490;2023-03-31T02:04:16;12.40;1.00
14031;DHT22;7090;49.436;8.490;2023-03-31T02:06:49;12.40;1.00
14031;DHT22;7090;49.436;8.490;2023-03-31T02:09:21;12.40;1.00
14031;DHT22;7090;49.436;8.490;2023-03-31T02:11:49;12.40;1.00
14031;DHT22;7090;49.436;8.490;2023-03-31T02:14:20;12.30;1.00
14031;DHT22;7090;49.436;8.490;2023-03-31T02:16:51;12.40;1.00
14031;DHT22;7090;49.436;8.490;2023-03-31T02:19:24;12.30;1.00
14031;DHT22;7090;49.436;8.490;2023-03-31T02:21:51;12.30;24.80
14031;DHT22;7090;49.436;8.490;2023-03-31T02:24:21;12.30;43.30
14031;DHT22;7090;49.436;8.490;2023-03-31T02:27:14;12.30;93.20
14031;DHT22;7090;49.436;8.490;2023-03-31T02:29:41;12.30;99.90
14031;DHT22;7090;49.436;8.490;2023-03-31T02:34:44;12.20;99.90
14031;DHT22;7090;49.436;8.490;2023-03-31T02:37:11;12.20;99.90
14031;DHT22;7090;49.436;8.490;2023-03-31T02:39:40;12.20;99.90
14031;DHT22;7090;49.436;8.490;2023-03-31T02:42:08;12.20;99.90
14031;DHT22;7090;49.436;8.490;2023-03-31T02:44:37;12.30;94.30
14031;DHT22;7090;49.436;8.490;2023-03-31T02:47:07;12.30;94.10
14031;DHT22;7090;49.436;8.490;2023-03-31T02:49:36;12.30;78.50
14031;DHT22;7090;49.436;8.490;2023-03-31T03:04:07;12.20;1.00
14031;DHT22;7090;49.436;8.490;2023-03-31T03:09:37;12.20;1.00
14031;DHT22;7090;49.436;8.490;2023-03-31T03:12:23;12.20;1.00
14031;DHT22;7090;49.436;8.490;2023-03-31T03:17:40;12.30;1.00
14031;DHT22;7090;49.436;8.490;2023-03-31T03:20:08;12.20;1.00
14031;DHT22;7090;49.436;8.490;2023-03-31T03:22:35;12.20;1.00
14031;DHT22;7090;49.436;8.490;2023-03-31T03:25:02;12.20;1.00
14031;DHT22;7090;49.436;8.490;2023-03-31T03:27:27;12.10;1.00
14031;DHT22;7090;49.436;8.490;2023-03-31T03:29:53;12.20;1.00
14031;DHT22;7090;49.436;8.490;2023-03-31T03:32:19;12.20;1.00
14031;DHT22;7090;49.436;8.490;2023-03-31T03:34:44;12.10;1.00
14031;DHT22;7090;49.436;8.490;2023-03-31T03:37:10;12.10;1.00
14031;DHT22;7090;49.436;8.490;2023-03-31T03:39:36;12.10;1.00
14031;DHT22;7090;49.436;8.490;2023-03-31T03:42:02;12.10;1.00
14031;DHT22;7090;49.436;8.490;2023-03-31T03:44:27;12.00;1.00
14031;DHT22;7090;49.436;8.490;2023-03-31T03:46:53;12.00;78.70
14031;DHT22;7090;49.436;8.490;2023-03-31T03:49:19;11.90;97.80
14031;DHT22;7090;49.436;8.490;2023-03-31T03:51:45;11.90;99.90
14031;DHT22;7090;49.436;8.490;2023-03-31T03:54:11;11.80;99.90
14031;DHT22;7090;49.436;8.490;2023-03-31T03:56:37;11.80;99.90
14031;DHT22;7090;49.436;8.490;2023-03-31T03:59:02;11.80;99.90
14031;DHT22;7090;49.436;8.490;2023-03-31T04:01:28;11.80;99.90
14031;DHT22;7090;49.436;8.490;2023-03-31T04:03:53;11.80;99.90
14031;DHT22;7090;49.436;8.490;2023-03-31T04:06:19;11.70;99.90
14031;DHT22;7090;49.436;8.490;2023-03-31T04:08:45;11.70;99.90
14031;DHT22;7090;49.436;8.490;2023-03-31T04:11:15;11.70;99.90
14031;DHT22;7090;49.436;8.490;2023-03-31T04:13:45;11.70;99.90
14031;DHT22;7090;49.436;8.490;2023-03-31T04:16:11;11.70;99.90
14031;DHT22;7090;49.436;8.490;2023-03-31T04:18:37;11.70;99.90
14031;DHT22;7090;49.436;8.490;2023-03-31T04:21:16;11.70;99.90
14031;DHT22;7090;49.436;8.490;2023-03-31T04:23:48;11.60;99.90
14031;DHT22;7090;49.436;8.490;2023-03-31T04:26:16;11.60;99.90
14031;DHT22;7090;49.436;8.490;2023-03-31T04:28:43;11.60;99.90
14031;DHT22;7090;49.436;8.490;2023-03-31T04:31:12;11.60;99.90
14031;DHT22;7090;49.436;8.490;2023-03-31T04:33:52;11.60;99.90
14031;DHT22;7090;49.436;8.490;2023-03-31T04:36:18;11.60;99.90
14031;DHT22;7090;49.436;8.490;2023-03-31T04:38:45;11.60;99.90
14031;DHT22;7090;49.436;8.490;2023-03-31T04:41:14;11.60;99.90
14031;DHT22;7090;49.436;8.490;2023-03-31T04:43:40;11.60;99.90
14031;DHT22;7090;49.436;8.490;2023-03-31T04:46:06;11.50;99.90
14031;DHT22;7090;49.436;8.490;2023-03-31T04:51:44;11.50;99.90
14031;DHT22;7090;49.436;8.490;2023-03-31T04:54:10;11.40;99.90
14031;DHT22;7090;49.436;8.490;2023-03-31T04:56:35;11.40;99.90
14031;DHT22;7090;49.436;8.490;2023-03-31T04:59:01;11.40;99.90
14031;DHT22;7090;49.436;8.490;2023-03-31T05:01:28;11.40;99.90
14031;DHT22;7090;49.436;8.490;2023-03-31T05:03:58;11.40;99.90
14031;DHT22;7090;49.436;8.490;2023-03-31T05:06:24;11.30;99.90
14031;DHT22;7090;49.436;8.490;2023-03-31T05:08:49;11.30;99.90
14031;DHT22;7090;49.436;8.490;2023-03-31T05:11:15;11.30;99.90
14031;DHT22;7090;49.436;8.490;2023-03-31T05:13:41;11.30;99.90
14031;DHT22;7090;49.436;8.490;2023-03-31T05:16:11;11.20;99.90
14031;DHT22;7090;49.436;8.490;2023-03-31T05:18:39;11.20;99.90
14031;DHT22;7090;49.436;8.490;2023-03-31T05:21:16;11.20;99.90
14031;DHT22;7090;49.436;8.490;2023-03-31T05:23:42;11.10;99.90
14031;DHT22;7090;49.436;8.490;2023-03-31T05:26:08;11.10;99.90
14031;DHT22;7090;49.436;8.490;2023-03-31T05:28:34;11.00;99.90
14031;DHT22;7090;49.436;8.490;2023-03-31T05:31:02;11.00;99.90
14031;DHT22;7090;49.436;8.490;2023-03-31T05:33:28;11.00;99.90
14031;DHT22;7090;49.436;8.490;2023-03-31T05:35:54;11.00;99.90
14031;DHT22;7090;49.436;8.490;2023-03-31T05:38:20;10.90;99.90
14031;DHT22;7090;49.436;8.490;2023-03-31T05:40:46;10.90;99.90
14031;DHT22;7090;49.436;8.490;2023-03-31T05:43:12;10.90;99.90
14031;DHT22;7090;49.436;8.490;2023-03-31T05:45:38;10.90;99.90
14031;DHT22;7090;49.436;8.490;2023-03-31T05:48:04;10.80;99.90
14031;DHT22;7090;49.436;8.490;2023-03-31T05:50:29;10.80;99.90
14031;DHT22;7090;49.436;8.490;2023-03-31T05:52:55;10.80;99.90
14031;DHT22;7090;49.436;8.490;2023-03-31T05:55:22;10.80;99.90
14031;DHT22;7090;49.436;8.490;2023-03-31T05:57:47;10.70;99.90
14031;DHT22;7090;49.436;8.490;2023-03-31T06:00:13;10.80;99.90
14031;DHT22;7090;49.436;8.490;2023-03-31T06:02:39;10.70;99.90
14031;DHT22;7090;49.436;8.490;2023-03-31T06:05:06;10.70;99.90
14031;DHT22;7090;49.436;8.490;2023-03-31T06:07:31;10.70;99.90
14031;DHT22;7090;49.436;8.490;2023-03-31T06:09:57;10.60;99.90
14031;DHT22;7090;49.436;8.490;2023-03-31T06:12:22;10.60;99.90
14031;DHT22;7090;49.436;8.490;2023-03-31T06:14:48;10.60;99.90
14031;DHT22;7090;49.436;8.490;2023-03-31T06:17:13;10.60;99.90
14031;DHT22;7090;49.436;8.490;2023-03-31T06:19:39;10.50;99.90
14031;DHT22;7090;49.436;8.490;2023-03-31T06:22:04;10.60;99.90
14031;DHT22;7090;49.436;8.490;2023-03-31T06:24:30;10.40;99.90
14031;DHT22;7090;49.436;8.490;2023-03-31T06:26:55;10.40;99.90
14031;DHT22;7090;49.436;8.490;2023-03-31T06:29:21;10.40;99.90
14031;DHT22;7090;49.436;8.490;2023-03-31T06:31:47;10.40;99.90
14031;DHT22;7090;49.436;8.490;2023-03-31T06:34:12;10.40;99.90
14031;DHT22;7090;49.436;8.490;2023-03-31T06:36:38;10.30;99.90
14031;DHT22;7090;49.436;8.490;2023-03-31T06:39:03;10.40;99.90
14031;DHT22;7090;49.436;8.490;2023-03-31T06:41:29;10.30;99.90
14031;DHT22;7090;49.436;8.490;2023-03-31T06:43:56;10.40;99.90
14031;DHT22;7090;49.436;8.490;2023-03-31T06:46:21;10.40;99.90
14031;DHT22;7090;49.436;8.490;2023-03-31T06:48:47;10.40;99.90
14031;DHT22;7090;49.436;8.490;2023-03-31T06:51:16;10.50;99.90
14031;DHT22;7090;49.436;8.490;2023-03-31T06:53:42;10.60;99.90
14031;DHT22;7090;49.436;8.490;2023-03-31T06:56:08;10.60;99.90
14031;DHT22;7090;49.436;8.490;2023-03-31T06:58:34;10.70;99.90
14031;DHT22;7090;49.436;8.490;2023-03-31T07:01:01;10.80;99.90
14031;DHT22;7090;49.436;8.490;2023-03-31T07:03:28;10.80;99.90
14031;DHT22;7090;49.436;8.490;2023-03-31T07:05:54;10.80;99.90
14031;DHT22;7090;49.436;8.490;2023-03-31T07:08:21;10.80;99.90
14031;DHT22;7090;49.436;8.490;2023-03-31T07:10:47;10.80;99.90
14031;DHT22;7090;49.436;8.490;2023-03-31T07:13:17;10.70;99.90
14031;DHT22;7090;49.436;8.490;2023-03-31T07:15:43;10.70;99.90
14031;DHT22;7090;49.436;8.490;2023-03-31T07:18:11;10.70;99.90
14031;DHT22;7090;49.436;8.490;2023-03-31T07:20:37;10.80;99.90
14031;DHT22;7090;49.436;8.490;2023-03-31T07:23:04;10.80;99.90
14031;DHT22;7090;49.436;8.490;2023-03-31T07:25:30;10.90;99.90
14031;DHT22;7090;49.436;8.490;2023-03-31T07:27:56;10.90;99.90
14031;DHT22;7090;49.436;8.490;2023-03-31T07:30:21;11.00;99.90
14031;DHT22;7090;49.436;8.490;2023-03-31T07:32:50;11.20;99.90
14031;DHT22;7090;49.436;8.490;2023-03-31T07:35:16;11.30;99.90
14031;DHT22;7090;49.436;8.490;2023-03-31T07:37:45;11.30;99.90
14031;DHT22;7090;49.436;8.490;2023-03-31T07:40:15;11.40;99.90
14031;DHT22;7090;49.436;8.490;2023-03-31T07:42:42;11.40;99.90
14031;DHT22;7090;49.436;8.490;2023-03-31T07:45:09;11.50;99.90
14031;DHT22;7090;49.436;8.490;2023-03-31T07:47:35;11.60;99.90
14031;DHT22;7090;49.436;8.490;2023-03-31T07:50:01;11.70;99.90
14031;DHT22;7090;49.436;8.490;2023-03-31T07:52:27;11.80;99.90
14031;DHT22;7090;49.436;8.490;2023-03-31T07:54:53;11.80;99.90
14031;DHT22;7090;49.436;8.490;2023-03-31T07:57:18;11.90;99.90
14031;DHT22;7090;49.436;8.490;2023-03-31T07:59:45;12.00;99.90
14031;DHT22;7090;49.436;8.490;2023-03-31T08:02:12;11.90;99.90
14031;DHT22;7090;49.436;8.490;2023-03-31T08:04:38;11.80;99.90
14031;DHT22;7090;49.436;8.490;2023-03-31T08:07:07;11.70;99.90
14031;DHT22;7090;49.436;8.490;2023-03-31T08:09:33;11.60;99.90
14031;DHT22;7090;49.436;8.490;2023-03-31T08:11:59;11.50;99.90
14031;DHT22;7090;49.436;8.490;2023-03-31T08:14:24;11.50;99.90
14031;DHT22;7090;49.436;8.490;2023-03-31T08:16:50;11.50;99.90
14031;DHT22;7090;49.436;8.490;2023-03-31T08:19:17;11.60;99.90
14031;DHT22;7090;49.436;8.490;2023-03-31T08:21:43;12.00;99.90
14031;DHT22;7090;49.436;8.490;2023-03-31T08:24:08;11.80;99.90
14031;DHT22;7090;49.436;8.490;2023-03-31T08:26:34;12.00;99.90
14031;DHT22;7090;49.436;8.490;2023-03-31T08:28:59;12.10;99.90
14031;DHT22;7090;49.436;8.490;2023-03-31T08:31:25;12.20;99.90
14031;DHT22;7090;49.436;8.490;2023-03-31T08:33:53;12.20;99.90
14031;DHT22;7090;49.436;8.490;2023-03-31T08:36:19;12.40;99.90
14031;DHT22;7090;49.436;8.490;2023-03-31T08:38:45;12.60;99.90
14031;DHT22;7090;49.436;8.490;2023-03-31T08:43:50;13.10;99.90
14031;DHT22;7090;49.436;8.490;2023-03-31T08:46:17;13.40;99.90
14031;DHT22;7090;49.436;8.490;2023-03-31T08:48:50;13.80;99.90
14031;DHT22;7090;49.436;8.490;2023-03-31T08:51:24;14.20;99.90
14031;DHT22;7090;49.436;8.490;2023-03-31T08:54:18;14.30;99.90
14031;DHT22;7090;49.436;8.490;2023-03-31T08:56:47;14.20;99.90
14031;DHT22;7090;49.436;8.490;2023-03-31T08:59:28;14.20;99.90
14031;DHT22;7090;49.436;8.490;2023-03-31T09:02:20;14.40;99.90
14031;DHT22;7090;49.436;8.490;2023-03-31T09:10:46;14.00;99.90
14031;DHT22;7090;49.436;8.490;2023-03-31T09:13:30;13.90;99.90
14031;DHT22;7090;49.436;8.490;2023-03-31T09:18:37;13.20;99.90
14031;DHT22;7090;49.436;8.490;2023-03-31T09:21:15;12.80;99.90
14031;DHT22;7090;49.436;8.490;2023-03-31T09:23:47;12.60;99.90
14031;DHT22;7090;49.436;8.490;2023-03-31T09:26:25;12.50;99.90
14031;DHT22;7090;49.436;8.490;2023-03-31T09:28:52;12.40;99.90
14031;DHT22;7090;49.436;8.490;2023-03-31T09:31:20;12.40;99.90
14031;DHT22;7090;49.436;8.490;2023-03-31T09:33:47;12.40;99.90
14031;DHT22;7090;49.436;8.490;2023-03-31T09:36:18;12.40;99.90
14031;DHT22;7090;49.436;8.490;2023-03-31T09:38:45;12.30;99.90
14031;DHT22;7090;49.436;8.490;2023-03-31T09:41:14;12.30;99.90
14031;DHT22;7090;49.436;8.490;2023-03-31T09:43:40;12.30;99.90
14031;DHT22;7090;49.436;8.490;2023-03-31T09:46:21;12.30;99.90
14031;DHT22;7090;49.436;8.490;2023-03-31T09:48:56;12.00;99.90
14031;DHT22;7090;49.436;8.490;2023-03-31T09:51:26;12.00;99.90
14031;DHT22;7090;49.436;8.490;2023-03-31T09:54:01;11.50;99.90
14031;DHT22;7090;49.436;8.490;2023-03-31T09:59:17;11.10;99.90
14031;DHT22;7090;49.436;8.490;2023-03-31T10:01:49;11.10;99.90
14031;DHT22;7090;49.436;8.490;2023-03-31T10:04:22;11.20;99.90
14031;DHT22;7090;49.436;8.490;2023-03-31T10:06:49;11.40;99.90
14031;DHT22;7090;49.436;8.490;2023-03-31T10:09:18;11.50;99.90
14031;DHT22;7090;49.436;8.490;2023-03-31T10:11:54;11.70;99.90
14031;DHT22;7090;49.436;8.490;2023-03-31T10:14:39;12.10;99.90
14031;DHT22;7090;49.436;8.490;2023-03-31T10:17:05;12.50;99.90
14031;DHT22;7090;49.436;8.490;2023-03-31T10:19:35;12.80;99.90
14031;DHT22;7090;49.436;8.490;2023-03-31T10:22:13;12.90;99.90
14031;DHT22;7090;49.436;8.490;2023-03-31T10:24:44;13.20;99.90
14031;DHT22;7090;49.436;8.490;2023-03-31T10:27:27;13.00;99.90
14031;DHT22;7090;49.436;8.490;2023-03-31T10:30:00;12.90;99.90
14031;DHT22;7090;49.436;8.490;2023-03-31T10:32:29;12.70;99.90
14031;DHT22;7090;49.436;8.490;2023-03-31T10:34:56;12.60;99.90
14031;DHT22;7090;49.436;8.490;2023-03-31T10:37:25;12.70;99.90
14031;DHT22;7090;49.436;8.490;2023-03-31T10:40:23;13.00;99.90
14031;DHT22;7090;49.436;8.490;2023-03-31T10:42:59;13.20;99.90
14031;DHT22;7090;49.436;8.490;2023-03-31T10:45:29;13.40;99.90
14031;DHT22;7090;49.436;8.490;2023-03-31T10:47:58;13.30;99.90
14031;DHT22;7090;49.436;8.490;2023-03-31T10:50:30;13.70;1.00
14031;DHT22;7090;49.436;8.490;2023-03-31T10:53:02;13.70;1.00
14031;DHT22;7090;49.436;8.490;2023-03-31T10:55:34;13.60;1.00
14031;DHT22;7090;49.436;8.490;2023-03-31T10:58:09;13.20;99.90
14031;DHT22;7090;49.436;8.490;2023-03-31T11:20:23;12.90;99.90
14031;DHT22;7090;49.436;8.490;2023-03-31T11:23:18;13.20;1.00
14031;DHT22;7090;49.436;8.490;2023-03-31T11:25:57;13.20;1.00
14031;DHT22;7090;49.436;8.490;2023-03-31T11:34:47;12.90;1.00
14031;DHT22;7090;49.436;8.490;2023-03-31T11:42:46;12.90;99.90
14031;DHT22;7090;49.436;8.490;2023-03-31T11:45:30;13.20;99.90
14031;DHT22;7090;49.436;8.490;2023-03-31T11:48:00;13.50;99.90
14031;DHT22;7090;49.436;8.490;2023-03-31T11:50:32;13.70;1.00
14031;DHT22;7090;49.436;8.490;2023-03-31T11:53:15;13.80;1.00
14031;DHT22;7090;49.436;8.490;2023-03-31T11:55:42;13.70;1.00
14031;DHT22;7090;49.436;8.490;2023-03-31T11:58:17;13.60;1.00
14031;DHT22;7090;49.436;8.490;2023-03-31T12:00:46;13.60;1.00
14031;DHT22;7090;49.436;8.490;2023-03-31T12:06:14;13.40;1.00
14031;DHT22;7090;49.436;8.490;2023-03-31T12:11:59;13.30;1.00
14031;DHT22;7090;49.436;8.490;2023-03-31T12:14:36;13.30;1.00
14031;DHT22;7090;49.436;8.490;2023-03-31T12:17:13;13.30;1.00
14031;DHT22;7090;49.436;8.490;2023-03-31T12:19:52;13.40;1.00
14031;DHT22;7090;49.436;8.490;2023-03-31T12:24:47;13.60;1.00
14031;DHT22;7090;49.436;8.490;2023-03-31T12:27:41;13.70;1.00
14031;DHT22;7090;49.436;8.490;2023-03-31T12:33:19;13.70;99.90
14031;DHT22;7090;49.436;8.490;2023-03-31T12:35:56;13.80;99.90
14031;DHT22;7090;49.436;8.490;2023-03-31T12:38:44;13.70;90.00
14031;DHT22;7090;49.436;8.490;2023-03-31T12:44:30;13.90;99.90
14031;DHT22;7090;49.436;8.490;2023-03-31T12:50:14;13.80;93.20
14031;DHT22;7090;49.436;8.490;2023-03-31T13:09:04;14.70;1.00
14031;DHT22;7090;49.436;8.490;2023-03-31T13:14:24;14.30;48.20
14031;DHT22;7090;49.436;8.490;2023-03-31T13:17:29;14.30;99.90
14031;DHT22;7090;49.436;8.490;2023-03-31T13:20:16;14.40;99.90
14031;DHT22;7090;49.436;8.490;2023-03-31T13:25:42;14.40;99.90
14031;DHT22;7090;49.436;8.490;2023-03-31T13:58:23;14.30;35.50
14031;DHT22;7090;49.436;8.490;2023-03-31T14:06:46;14.10;99.90
14031;DHT22;7090;49.436;8.490;2023-03-31T14:09:24;14.20;99.90
14031;DHT22;7090;49.436;8.490;2023-03-31T14:11:51;13.50;99.90
14031;DHT22;7090;49.436;8.490;2023-03-31T14:14:17;12.40;99.90
14031;DHT22;7090;49.436;8.490;2023-03-31T14:27:56;11.30;99.90
14031;DHT22;7090;49.436;8.490;2023-03-31T14:30:43;11.50;99.90
14031;DHT22;7090;49.436;8.490;2023-03-31T14:36:09;11.60;99.90
14031;DHT22;7090;49.436;8.490;2023-03-31T14:38:37;11.60;99.90
14031;DHT22;7090;49.436;8.490;2023-03-31T14:41:03;11.50;99.90
14031;DHT22;7090;49.436;8.490;2023-03-31T14:43:35;11.70;99.90
14031;DHT22;7090;49.436;8.490;2023-03-31T14:46:05;11.80;99.90
14031;DHT22;7090;49.436;8.490;2023-03-31T14:48:44;12.10;99.90
14031;DHT22;7090;49.436;8.490;2023-03-31T14:51:11;12.20;99.90
14031;DHT22;7090;49.436;8.490;2023-03-31T14:53:38;12.30;99.90
14031;DHT22;7090;49.436;8.490;2023-03-31T14:56:07;12.50;99.90
14031;DHT22;7090;49.436;8.490;2023-03-31T14:58:38;12.60;99.90
14031;DHT22;7090;49.436;8.490;2023-03-31T15:01:06;12.60;99.90
14031;DHT22;7090;49.436;8.490;2023-03-31T15:03:35;12.60;99.90
14031;DHT22;7090;49.436;8.490;2023-03-31T15:06:04;12.50;99.90
14031;DHT22;7090;49.436;8.490;2023-03-31T15:08:31;12.50;99.90
14031;DHT22;7090;49.436;8.490;2023-03-31T15:11:03;12.60;99.90
14031;DHT22;7090;49.436;8.490;2023-03-31T15:13:33;12.50;99.90
14031;DHT22;7090;49.436;8.490;2023-03-31T15:16:29;12.50;99.90
14031;DHT22;7090;49.436;8.490;2023-03-31T15:18:57;12.50;99.90
14031;DHT22;7090;49.436;8.490;2023-03-31T15:21:24;12.50;99.90
14031;DHT22;7090;49.436;8.490;2023-03-31T15:23:51;12.60;99.90
14031;DHT22;7090;49.436;8.490;2023-03-31T15:26:21;12.60;99.90
14031;DHT22;7090;49.436;8.490;2023-03-31T15:28:56;12.60;99.90
14031;DHT22;7090;49.436;8.490;2023-03-31T15:31:23;12.60;99.90
14031;DHT22;7090;49.436;8.490;2023-03-31T15:33:51;12.60;99.90
14031;DHT22;7090;49.436;8.490;2023-03-31T15:36:19;12.50;99.90
14031;DHT22;7090;49.436;8.490;2023-03-31T15:38:46;12.50;99.90
14031;DHT22;7090;49.436;8.490;2023-03-31T15:41:13;12.50;99.90
14031;DHT22;7090;49.436;8.490;2023-03-31T15:49:20;12.30;99.90
14031;DHT22;7090;49.436;8.490;2023-03-31T15:51:47;12.20;99.90
14031;DHT22;7090;49.436;8.490;2023-03-31T15:56:59;12.00;99.90
14031;DHT22;7090;49.436;8.490;2023-03-31T15:59:47;11.80;99.90
14031;DHT22;7090;49.436;8.490;2023-03-31T16:05:03;11.70;99.90
14031;DHT22;7090;49.436;8.490;2023-03-31T16:07:34;11.80;99.90
14031;DHT22;7090;49.436;8.490;2023-03-31T16:10:14;11.80;99.90
14031;DHT22;7090;49.436;8.490;2023-03-31T16:12:49;11.80;99.90
14031;DHT22;7090;49.436;8.490;2023-03-31T16:15:20;11.70;99.90
14031;DHT22;7090;49.436;8.490;2023-03-31T16:17:52;11.80;99.90
14031;DHT22;7090;49.436;8.490;2023-03-31T16:20:24;11.70;99.90
14031;DHT22;7090;49.436;8.490;2023-03-31T16:22:53;11.80;99.90
14031;DHT22;7090;49.436;8.490;2023-03-31T16:25:22;11.80;99.90
14031;DHT22;7090;49.436;8.490;2023-03-31T16:27:55;11.80;99.90
14031;DHT22;7090;49.436;8.490;2023-03-31T16:30:36;11.80;99.90
14031;DHT22;7090;49.436;8.490;2023-03-31T16:33:07;11.90;99.90
14031;DHT22;7090;49.436;8.490;2023-03-31T16:35:35;11.90;99.90
14031;DHT22;7090;49.436;8.490;2023-03-31T16:38:03;12.00;99.90
14031;DHT22;7090;49.436;8.490;2023-03-31T16:40:30;12.10;99.90
14031;DHT22;7090;49.436;8.490;2023-03-31T16:45:32;12.30;99.90
14031;DHT22;7090;49.436;8.490;2023-03-31T16:47:58;12.30;99.90
14031;DHT22;7090;49.436;8.490;2023-03-31T16:50:23;12.30;99.90
14031;DHT22;7090;49.436;8.490;2023-03-31T16:52:49;12.30;99.90
14031;DHT22;7090;49.436;8.490;2023-03-31T16:55:16;12.40;99.90
14031;DHT22;7090;49.436;8.490;2023-03-31T16:57:41;12.40;99.90
14031;DHT22;7090;49.436;8.490;2023-03-31T17:00:07;12.30;99.90
14031;DHT22;7090;49.436;8.490;2023-03-31T17:02:33;12.30;99.90
14031;DHT22;7090;49.436;8.490;2023-03-31T17:04:58;12.30;97.00
14031;DHT22;7090;49.436;8.490;2023-03-31T17:07:24;12.20;99.90
14031;DHT22;7090;49.436;8.490;2023-03-31T17:09:50;12.20;1.00
14031;DHT22;7090;49.436;8.490;2023-03-31T17:12:16;12.10;1.00
14031;DHT22;7090;49.436;8.490;2023-03-31T17:14:42;12.00;1.00
14031;DHT22;7090;49.436;8.490;2023-03-31T17:17:07;12.10;1.00
14031;DHT22;7090;49.436;8.490;2023-03-31T17:19:33;12.00;1.00
14031;DHT22;7090;49.436;8.490;2023-03-31T17:21:58;11.90;1.00
14031;DHT22;7090;49.436;8.490;2023-03-31T17:24:28;11.80;1.00
14031;DHT22;7090;49.436;8.490;2023-03-31T17:26:53;11.80;1.00
14031;DHT22;7090;49.436;8.490;2023-03-31T17:29:19;11.80;1.00
14031;DHT22;7090;49.436;8.490;2023-03-31T17:31:45;11.80;1.00
14031;DHT22;7090;49.436;8.490;2023-03-31T17:34:10;11.70;1.00
14031;DHT22;7090;49.436;8.490;2023-03-31T17:36:36;11.80;1.00
14031;DHT22;7090;49.436;8.490;2023-03-31T17:39:03;11.70;1.00
14031;DHT22;7090;49.436;8.490;2023-03-31T17:41:29;11.60;1.00
14031;DHT22;7090;49.436;8.490;2023-03-31T17:43:56;11.70;1.00
14031;DHT22;7090;49.436;8.490;2023-03-31T17:46:22;11.50;1.00
14031;DHT22;7090;49.436;8.490;2023-03-31T17:48:48;11.50;1.00
14031;DHT22;7090;49.436;8.490;2023-03-31T17:51:17;11.50;1.00
14031;DHT22;7090;49.436;8.490;2023-03-31T17:53:44;11.50;1.00
14031;DHT22;7090;49.436;8.490;2023-03-31T17:56:10;11.40;1.00
14031;DHT22;7090;49.436;8.490;2023-03-31T17:58:36;11.40;1.00
14031;DHT22;7090;49.436;8.490;2023-03-31T18:01:07;11.40;1.00
14031;DHT22;7090;49.436;8.490;2023-03-31T18:03:34;11.40;1.00
14031;DHT22;7090;49.436;8.490;2023-03-31T18:06:08;11.30;1.00
14031;DHT22;7090;49.436;8.490;2023-03-31T18:08:35;11.30;1.00
14031;DHT22;7090;49.436;8.490;2023-03-31T18:11:02;11.20;1.00
14031;DHT22;7090;49.436;8.490;2023-03-31T18:13:30;11.20;1.00
14031;DHT22;7090;49.436;8.490;2023-03-31T18:15:56;11.20;1.00
14031;DHT22;7090;49.436;8.490;2023-03-31T18:18:23;11.10;18.50
14031;DHT22;7090;49.436;8.490;2023-03-31T18:20:51;11.10;32.70
14031;DHT22;7090;49.436;8.490;2023-03-31T18:23:17;11.10;61.50
14031;DHT22;7090;49.436;8.490;2023-03-31T18:25:43;11.10;45.20
14031;DHT22;7090;49.436;8.490;2023-03-31T18:28:11;11.10;99.90
14031;DHT22;7090;49.436;8.490;2023-03-31T18:30:37;11.10;99.90
14031;DHT22;7090;49.436;8.490;2023-03-31T18:33:02;11.00;99.90
14031;DHT22;7090;49.436;8.490;2023-03-31T18:35:28;11.00;99.90
14031;DHT22;7090;49.436;8.490;2023-03-31T18:37:53;11.10;99.90
14031;DHT22;7090;49.436;8.490;2023-03-31T18:40:20;11.00;99.90
14031;DHT22;7090;49.436;8.490;2023-03-31T18:42:46;11.00;99.90
14031;DHT22;7090;49.436;8.490;2023-03-31T18:45:12;10.90;99.90
14031;DHT22;7090;49.436;8.490;2023-03-31T18:47:38;10.90;99.90
14031;DHT22;7090;49.436;8.490;2023-03-31T18:50:05;10.90;99.90
14031;DHT22;7090;49.436;8.490;2023-03-31T18:52:30;10.90;99.90
14031;DHT22;7090;49.436;8.490;2023-03-31T18:54:56;10.80;99.90
14031;DHT22;7090;49.436;8.490;2023-03-31T18:57:22;10.80;99.90
14031;DHT22;7090;49.436;8.490;2023-03-31T18:59:48;10.80;99.90
14031;DHT22;7090;49.436;8.490;2023-03-31T19:02:15;10.70;99.90
14031;DHT22;7090;49.436;8.490;2023-03-31T19:04:45;10.80;99.90
14031;DHT22;7090;49.436;8.490;2023-03-31T19:07:13;10.80;99.90
14031;DHT22;7090;49.436;8.490;2023-03-31T19:09:39;10.80;99.90
14031;DHT22;7090;49.436;8.490;2023-03-31T19:12:05;10.80;99.90
14031;DHT22;7090;49.436;8.490;2023-03-31T19:14:30;10.80;99.90
14031;DHT22;7090;49.436;8.490;2023-03-31T19:16:57;10.90;99.90
14031;DHT22;7090;49.436;8.490;2023-03-31T19:19:23;10.80;99.90
14031;DHT22;7090;49.436;8.490;2023-03-31T19:21:48;10.80;99.90